sensor_id;sensor_type;location;lat;lon;timestamp;temperature;humidity
15355;DHT22;7777;52.254;9.618;2023-07-09T00:02:12;20.60;86.20
15355;DHT22;7777;52.254;9.618;2023-07-09T00:04:38;20.60;86.10
15355;DHT22;7777;52.254;9.618;2023-07-09T00:07:04;20.50;86.40
15355;DHT22;7777;52.254;9.618;2023-07-09T00:09:30;20.50;86.30
15355;DHT22;7777;52.254;9.618;2023-07-09T00:11:58;20.50;86.20
15355;DHT22;7777;52.254;9.618;2023-07-09T00:14:23;20.50;86.40
15355;DHT22;7777;52.254;9.618;2023-07-09T00:16:49;20.40;86.30
15355;DHT22;7777;52.254;9.618;2023-07-09T00:19:20;20.40;86.60
15355;DHT22;7777;52.254;9.618;2023-07-09T00:21:49;20.40;86.40
15355;DHT22;7777;52.254;9.618;2023-07-09T00:24:18;20.30;86.30
15355;DHT22;7777;52.254;9.618;2023-07-09T00:26:44;20.30;86.30
15355;DHT22;7777;52.254;9.618;2023-07-09T00:29:12;20.30;86.30
15355;DHT22;7777;52.254;9.618;2023-07-09T00:31:39;20.20;86.40
15355;DHT22;7777;52.254;9.618;2023-07-09T00:34:10;20.20;86.50
15355;DHT22;7777;52.254;9.618;2023-07-09T00:36:40;20.20;86.60
15355;DHT22;7777;52.254;9.618;2023-07-09T00:39:16;20.20;86.50
15355;DHT22;7777;52.254;9.618;2023-07-09T00:41:43;20.10;86.70
15355;DHT22;7777;52.254;9.618;2023-07-09T00:49:31;20.00;86.90
15355;DHT22;7777;52.254;9.618;2023-07-09T00:52:01;20.00;86.70
15355;DHT22;7777;52.254;9.618;2023-07-09T00:54:40;19.90;86.70
15355;DHT22;7777;52.254;9.618;2023-07-09T00:57:16;19.90;86.70
15355;DHT22;7777;52.254;9.618;2023-07-09T00:59:50;19.90;86.80
15355;DHT22;7777;52.254;9.618;2023-07-09T01:02:20;19.90;86.80
15355;DHT22;7777;52.254;9.618;2023-07-09T01:04:51;19.90;86.70
15355;DHT22;7777;52.254;9.618;2023-07-09T01:07:17;19.80;86.70
15355;DHT22;7777;52.254;9.618;2023-07-09T01:09:45;19.80;86.50
15355;DHT22;7777;52.254;9.618;2023-07-09T01:12:11;19.80;86.90
15355;DHT22;7777;52.254;9.618;2023-07-09T01:14:39;19.70;86.70
15355;DHT22;7777;52.254;9.618;2023-07-09T01:17:06;19.70;86.80
15355;DHT22;7777;52.254;9.618;2023-07-09T01:19:39;19.70;87.00
15355;DHT22;7777;52.254;9.618;2023-07-09T01:22:19;19.70;87.30
15355;DHT22;7777;52.254;9.618;2023-07-09T01:24:59;19.60;86.80
15355;DHT22;7777;52.254;9.618;2023-07-09T01:27:38;19.60;86.90
15355;DHT22;7777;52.254;9.618;2023-07-09T01:32:59;19.50;86.90
15355;DHT22;7777;52.254;9.618;2023-07-09T01:35:28;19.50;86.90
15355;DHT22;7777;52.254;9.618;2023-07-09T01:37:56;19.50;86.90
15355;DHT22;7777;52.254;9.618;2023-07-09T01:40:23;19.50;87.00
15355;DHT22;7777;52.254;9.618;2023-07-09T01:42:51;19.50;87.70
15355;DHT22;7777;52.254;9.618;2023-07-09T01:45:17;19.40;87.10
15355;DHT22;7777;52.254;9.618;2023-07-09T01:47:45;19.40;87.10
15355;DHT22;7777;52.254;9.618;2023-07-09T01:50:12;19.40;87.20
15355;DHT22;7777;52.254;9.618;2023-07-09T01:52:42;19.30;87.00
15355;DHT22;7777;52.254;9.618;2023-07-09T01:55:10;19.30;87.20
15355;DHT22;7777;52.254;9.618;2023-07-09T01:57:37;19.30;87.20
15355;DHT22;7777;52.254;9.618;2023-07-09T02:00:09;19.30;87.20
15355;DHT22;7777;52.254;9.618;2023-07-09T02:02:37;19.20;87.30
15355;DHT22;7777;52.254;9.618;2023-07-09T02:05:04;19.20;87.10
15355;DHT22;7777;52.254;9.618;2023-07-09T02:07:31;19.20;87.30
15355;DHT22;7777;52.254;9.618;2023-07-09T02:09:58;19.20;87.30
15355;DHT22;7777;52.254;9.618;2023-07-09T02:12:24;19.10;87.10
15355;DHT22;7777;52.254;9.618;2023-07-09T02:14:50;19.10;87.30
15355;DHT22;7777;52.254;9.618;2023-07-09T02:17:16;19.10;87.20
15355;DHT22;7777;52.254;9.618;2023-07-09T02:19:43;19.10;87.30
15355;DHT22;7777;52.254;9.618;2023-07-09T02:22:10;19.10;87.30
15355;DHT22;7777;52.254;9.618;2023-07-09T02:24:37;19.00;87.20
15355;DHT22;7777;52.254;9.618;2023-07-09T02:27:05;19.00;87.40
15355;DHT22;7777;52.254;9.618;2023-07-09T02:29:32;19.00;87.40
15355;DHT22;7777;52.254;9.618;2023-07-09T02:32:00;19.00;87.50
15355;DHT22;7777;52.254;9.618;2023-07-09T02:34:27;18.90;87.40
15355;DHT22;7777;52.254;9.618;2023-07-09T02:36:55;19.00;87.50
15355;DHT22;7777;52.254;9.618;2023-07-09T02:39:22;19.00;87.60
15355;DHT22;7777;52.254;9.618;2023-07-09T02:41:49;18.90;87.60
15355;DHT22;7777;52.254;9.618;2023-07-09T02:44:16;18.90;87.60
15355;DHT22;7777;52.254;9.618;2023-07-09T02:46:42;18.90;87.70
15355;DHT22;7777;52.254;9.618;2023-07-09T02:49:11;18.90;88.40
15355;DHT22;7777;52.254;9.618;2023-07-09T02:51:37;18.90;87.80
15355;DHT22;7777;52.254;9.618;2023-07-09T02:54:04;18.90;87.90
15355;DHT22;7777;52.254;9.618;2023-07-09T02:56:30;18.90;87.80
15355;DHT22;7777;52.254;9.618;2023-07-09T02:58:56;18.90;87.90
15355;DHT22;7777;52.254;9.618;2023-07-09T03:01:22;18.90;87.90
15355;DHT22;7777;52.254;9.618;2023-07-09T03:03:51;18.90;87.90
15355;DHT22;7777;52.254;9.618;2023-07-09T03:06:20;18.90;87.90
15355;DHT22;7777;52.254;9.618;2023-07-09T03:08:46;18.90;88.00
15355;DHT22;7777;52.254;9.618;2023-07-09T03:11:13;18.80;87.90
15355;DHT22;7777;52.254;9.618;2023-07-09T03:13:40;18.90;88.20
15355;DHT22;7777;52.254;9.618;2023-07-09T03:16:06;18.80;88.00
15355;DHT22;7777;52.254;9.618;2023-07-09T03:18:31;18.80;88.00
15355;DHT22;7777;52.254;9.618;2023-07-09T03:20:58;18.80;88.00
15355;DHT22;7777;52.254;9.618;2023-07-09T03:23:24;18.80;88.00
15355;DHT22;7777;52.254;9.618;2023-07-09T03:25:49;18.80;88.00
15355;DHT22;7777;52.254;9.618;2023-07-09T03:28:15;18.80;88.20
15355;DHT22;7777;52.254;9.618;2023-07-09T03:30:42;18.80;88.50
15355;DHT22;7777;52.254;9.618;2023-07-09T03:33:10;18.80;88.30
15355;DHT22;7777;52.254;9.618;2023-07-09T03:35:37;18.80;88.20
15355;DHT22;7777;52.254;9.618;2023-07-09T03:38:04;18.90;88.20
15355;DHT22;7777;52.254;9.618;2023-07-09T03:40:31;18.90;88.30
15355;DHT22;7777;52.254;9.618;2023-07-09T03:42:57;18.90;88.30
15355;DHT22;7777;52.254;9.618;2023-07-09T03:45:22;18.90;88.30
15355;DHT22;7777;52.254;9.618;2023-07-09T03:47:48;18.90;88.30
15355;DHT22;7777;52.254;9.618;2023-07-09T03:50:14;18.90;88.40
15355;DHT22;7777;52.254;9.618;2023-07-09T03:52:40;18.90;88.50
15355;DHT22;7777;52.254;9.618;2023-07-09T03:55:06;19.00;88.50
15355;DHT22;7777;52.254;9.618;2023-07-09T03:57:33;19.00;88.70
15355;DHT22;7777;52.254;9.618;2023-07-09T03:59:59;19.00;88.60
15355;DHT22;7777;52.254;9.618;2023-07-09T04:02:25;19.00;88.60
15355;DHT22;7777;52.254;9.618;2023-07-09T04:04:51;19.00;88.70
15355;DHT22;7777;52.254;9.618;2023-07-09T04:07:16;19.00;88.70
15355;DHT22;7777;52.254;9.618;2023-07-09T04:09:42;19.00;88.80
15355;DHT22;7777;52.254;9.618;2023-07-09T04:12:11;19.10;88.90
15355;DHT22;7777;52.254;9.618;2023-07-09T04:14:37;19.10;89.00
15355;DHT22;7777;52.254;9.618;2023-07-09T04:17:03;19.10;89.10
15355;DHT22;7777;52.254;9.618;2023-07-09T04:19:29;19.10;89.20
15355;DHT22;7777;52.254;9.618;2023-07-09T04:21:55;19.10;89.20
15355;DHT22;7777;52.254;9.618;2023-07-09T04:24:21;19.10;89.20
15355;DHT22;7777;52.254;9.618;2023-07-09T04:26:47;19.10;89.10
15355;DHT22;7777;52.254;9.618;2023-07-09T04:29:13;19.10;89.10
15355;DHT22;7777;52.254;9.618;2023-07-09T04:31:40;19.10;89.10
15355;DHT22;7777;52.254;9.618;2023-07-09T04:34:07;19.20;89.30
15355;DHT22;7777;52.254;9.618;2023-07-09T04:36:33;19.20;89.30
15355;DHT22;7777;52.254;9.618;2023-07-09T04:39:00;19.20;89.40
15355;DHT22;7777;52.254;9.618;2023-07-09T04:41:26;19.20;89.30
15355;DHT22;7777;52.254;9.618;2023-07-09T04:43:52;19.20;89.40
15355;DHT22;7777;52.254;9.618;2023-07-09T04:46:17;19.20;89.50
15355;DHT22;7777;52.254;9.618;2023-07-09T04:48:43;19.30;90.00
15355;DHT22;7777;52.254;9.618;2023-07-09T04:51:09;19.30;90.40
15355;DHT22;7777;52.254;9.618;2023-07-09T04:53:35;19.30;90.20
15355;DHT22;7777;52.254;9.618;2023-07-09T04:56:00;19.30;90.20
15355;DHT22;7777;52.254;9.618;2023-07-09T04:58:28;19.40;90.10
15355;DHT22;7777;52.254;9.618;2023-07-09T05:00:58;19.40;90.10
15355;DHT22;7777;52.254;9.618;2023-07-09T05:03:25;19.40;90.20
15355;DHT22;7777;52.254;9.618;2023-07-09T05:05:51;19.50;90.40
15355;DHT22;7777;52.254;9.618;2023-07-09T05:08:17;19.50;90.30
15355;DHT22;7777;52.254;9.618;2023-07-09T05:10:44;19.50;90.50
15355;DHT22;7777;52.254;9.618;2023-07-09T05:13:12;19.60;90.50
15355;DHT22;7777;52.254;9.618;2023-07-09T05:15:43;19.60;90.80
15355;DHT22;7777;52.254;9.618;2023-07-09T05:18:12;19.60;90.90
15355;DHT22;7777;52.254;9.618;2023-07-09T05:20:39;19.70;90.70
15355;DHT22;7777;52.254;9.618;2023-07-09T05:23:06;19.70;90.80
15355;DHT22;7777;52.254;9.618;2023-07-09T05:25:33;19.70;90.70
15355;DHT22;7777;52.254;9.618;2023-07-09T05:27:58;19.70;90.60
15355;DHT22;7777;52.254;9.618;2023-07-09T05:30:25;19.80;90.90
15355;DHT22;7777;52.254;9.618;2023-07-09T05:32:51;19.80;90.80
15355;DHT22;7777;52.254;9.618;2023-07-09T05:35:19;19.90;90.90
15355;DHT22;7777;52.254;9.618;2023-07-09T05:37:45;19.90;90.80
15355;DHT22;7777;52.254;9.618;2023-07-09T05:40:10;20.00;90.90
15355;DHT22;7777;52.254;9.618;2023-07-09T05:42:36;20.00;90.80
15355;DHT22;7777;52.254;9.618;2023-07-09T05:45:02;20.10;91.00
15355;DHT22;7777;52.254;9.618;2023-07-09T05:47:28;20.10;91.00
15355;DHT22;7777;52.254;9.618;2023-07-09T05:49:54;20.20;91.10
15355;DHT22;7777;52.254;9.618;2023-07-09T05:52:22;20.20;91.30
15355;DHT22;7777;52.254;9.618;2023-07-09T05:54:50;20.30;91.60
15355;DHT22;7777;52.254;9.618;2023-07-09T05:57:17;20.30;91.50
15355;DHT22;7777;52.254;9.618;2023-07-09T05:59:43;20.40;91.60
15355;DHT22;7777;52.254;9.618;2023-07-09T06:02:10;20.40;91.40
15355;DHT22;7777;52.254;9.618;2023-07-09T06:04:37;20.50;91.40
15355;DHT22;7777;52.254;9.618;2023-07-09T06:07:03;20.50;91.50
15355;DHT22;7777;52.254;9.618;2023-07-09T06:09:29;20.60;91.30
15355;DHT22;7777;52.254;9.618;2023-07-09T06:11:56;20.60;91.50
15355;DHT22;7777;52.254;9.618;2023-07-09T06:14:21;20.70;91.30
15355;DHT22;7777;52.254;9.618;2023-07-09T06:16:47;20.80;91.40
15355;DHT22;7777;52.254;9.618;2023-07-09T06:19:13;20.80;91.30
15355;DHT22;7777;52.254;9.618;2023-07-09T06:21:39;20.90;91.60
15355;DHT22;7777;52.254;9.618;2023-07-09T06:24:06;21.00;91.70
15355;DHT22;7777;52.254;9.618;2023-07-09T06:26:33;21.00;91.90
15355;DHT22;7777;52.254;9.618;2023-07-09T06:28:59;21.00;91.80
15355;DHT22;7777;52.254;9.618;2023-07-09T06:31:25;21.10;91.90
15355;DHT22;7777;52.254;9.618;2023-07-09T06:33:51;21.20;92.00
15355;DHT22;7777;52.254;9.618;2023-07-09T06:36:18;21.30;92.00
15355;DHT22;7777;52.254;9.618;2023-07-09T06:38:44;21.30;92.00
15355;DHT22;7777;52.254;9.618;2023-07-09T06:41:11;21.40;92.20
15355;DHT22;7777;52.254;9.618;2023-07-09T06:43:37;21.50;92.10
15355;DHT22;7777;52.254;9.618;2023-07-09T06:46:05;21.50;92.10
15355;DHT22;7777;52.254;9.618;2023-07-09T06:48:32;21.60;92.00
15355;DHT22;7777;52.254;9.618;2023-07-09T06:50:59;21.70;92.10
15355;DHT22;7777;52.254;9.618;2023-07-09T06:53:26;21.80;92.10
15355;DHT22;7777;52.254;9.618;2023-07-09T06:55:53;21.80;92.20
15355;DHT22;7777;52.254;9.618;2023-07-09T06:58:29;21.90;92.20
15355;DHT22;7777;52.254;9.618;2023-07-09T07:00:57;22.00;92.20
15355;DHT22;7777;52.254;9.618;2023-07-09T07:03:23;22.10;92.30
15355;DHT22;7777;52.254;9.618;2023-07-09T07:05:52;22.20;92.20
15355;DHT22;7777;52.254;9.618;2023-07-09T07:08:23;22.20;92.20
15355;DHT22;7777;52.254;9.618;2023-07-09T07:10:54;22.30;92.20
15355;DHT22;7777;52.254;9.618;2023-07-09T07:13:34;22.40;92.30
15355;DHT22;7777;52.254;9.618;2023-07-09T07:16:03;22.50;92.30
15355;DHT22;7777;52.254;9.618;2023-07-09T07:18:30;22.70;92.40
15355;DHT22;7777;52.254;9.618;2023-07-09T07:20:56;22.70;92.40
15355;DHT22;7777;52.254;9.618;2023-07-09T07:23:22;22.80;92.70
15355;DHT22;7777;52.254;9.618;2023-07-09T07:25:48;22.90;92.90
15355;DHT22;7777;52.254;9.618;2023-07-09T07:28:15;23.00;92.70
15355;DHT22;7777;52.254;9.618;2023-07-09T07:30:41;23.20;93.10
15355;DHT22;7777;52.254;9.618;2023-07-09T07:33:08;23.30;92.80
15355;DHT22;7777;52.254;9.618;2023-07-09T07:35:34;23.40;92.90
15355;DHT22;7777;52.254;9.618;2023-07-09T07:37:59;23.50;93.40
15355;DHT22;7777;52.254;9.618;2023-07-09T07:40:25;23.60;93.20
15355;DHT22;7777;52.254;9.618;2023-07-09T07:42:51;23.70;93.00
15355;DHT22;7777;52.254;9.618;2023-07-09T07:45:17;23.80;93.20
15355;DHT22;7777;52.254;9.618;2023-07-09T07:47:42;23.80;93.20
15355;DHT22;7777;52.254;9.618;2023-07-09T07:50:09;23.90;93.20
15355;DHT22;7777;52.254;9.618;2023-07-09T07:52:35;24.00;93.40
15355;DHT22;7777;52.254;9.618;2023-07-09T07:55:07;24.10;93.20
15355;DHT22;7777;52.254;9.618;2023-07-09T07:57:33;24.20;93.20
15355;DHT22;7777;52.254;9.618;2023-07-09T07:59:59;24.20;93.20
15355;DHT22;7777;52.254;9.618;2023-07-09T08:02:25;24.30;93.10
15355;DHT22;7777;52.254;9.618;2023-07-09T08:04:51;24.40;93.00
15355;DHT22;7777;52.254;9.618;2023-07-09T08:07:18;24.50;93.20
15355;DHT22;7777;52.254;9.618;2023-07-09T08:09:45;24.50;93.20
15355;DHT22;7777;52.254;9.618;2023-07-09T08:12:12;24.60;93.20
15355;DHT22;7777;52.254;9.618;2023-07-09T08:14:40;24.70;93.20
15355;DHT22;7777;52.254;9.618;2023-07-09T08:17:07;24.80;93.10
15355;DHT22;7777;52.254;9.618;2023-07-09T08:19:44;24.90;93.20
15355;DHT22;7777;52.254;9.618;2023-07-09T08:22:11;25.00;93.40
15355;DHT22;7777;52.254;9.618;2023-07-09T08:24:37;25.10;93.20
15355;DHT22;7777;52.254;9.618;2023-07-09T08:27:05;25.10;92.90
15355;DHT22;7777;52.254;9.618;2023-07-09T08:29:31;25.20;93.10
15355;DHT22;7777;52.254;9.618;2023-07-09T08:31:57;25.30;93.10
15355;DHT22;7777;52.254;9.618;2023-07-09T08:34:23;25.40;93.20
15355;DHT22;7777;52.254;9.618;2023-07-09T08:36:48;25.50;93.30
15355;DHT22;7777;52.254;9.618;2023-07-09T08:39:14;25.60;93.40
15355;DHT22;7777;52.254;9.618;2023-07-09T08:41:48;25.70;93.20
15355;DHT22;7777;52.254;9.618;2023-07-09T08:44:42;25.80;93.30
15355;DHT22;7777;52.254;9.618;2023-07-09T08:47:27;25.80;93.20
15355;DHT22;7777;52.254;9.618;2023-07-09T08:50:11;26.00;93.30
15355;DHT22;7777;52.254;9.618;2023-07-09T08:52:44;26.10;93.40
15355;DHT22;7777;52.254;9.618;2023-07-09T08:55:16;26.10;93.30
15355;DHT22;7777;52.254;9.618;2023-07-09T08:57:49;26.30;93.30
15355;DHT22;7777;52.254;9.618;2023-07-09T09:00:54;26.30;93.10
15355;DHT22;7777;52.254;9.618;2023-07-09T09:03:28;26.40;93.20
15355;DHT22;7777;52.254;9.618;2023-07-09T09:05:57;26.50;93.30
15355;DHT22;7777;52.254;9.618;2023-07-09T09:14:34;26.80;93.40
15355;DHT22;7777;52.254;9.618;2023-07-09T09:17:15;26.90;93.30
15355;DHT22;7777;52.254;9.618;2023-07-09T09:20:15;27.00;93.30
15355;DHT22;7777;52.254;9.618;2023-07-09T09:22:48;27.10;93.40
15355;DHT22;7777;52.254;9.618;2023-07-09T09:25:24;27.20;93.30
15355;DHT22;7777;52.254;9.618;2023-07-09T09:27:52;27.30;93.40
15355;DHT22;7777;52.254;9.618;2023-07-09T09:30:23;27.40;93.10
15355;DHT22;7777;52.254;9.618;2023-07-09T09:33:01;27.50;93.30
15355;DHT22;7777;52.254;9.618;2023-07-09T09:35:33;27.60;93.00
15355;DHT22;7777;52.254;9.618;2023-07-09T09:38:10;27.70;92.90
15355;DHT22;7777;52.254;9.618;2023-07-09T09:40:38;27.70;92.80
15355;DHT22;7777;52.254;9.618;2023-07-09T09:43:13;27.80;93.30
15355;DHT22;7777;52.254;9.618;2023-07-09T09:45:40;27.90;93.00
15355;DHT22;7777;52.254;9.618;2023-07-09T09:48:36;28.00;92.90
15355;DHT22;7777;52.254;9.618;2023-07-09T09:51:04;28.10;92.80
15355;DHT22;7777;52.254;9.618;2023-07-09T09:53:37;28.20;92.90
15355;DHT22;7777;52.254;9.618;2023-07-09T09:56:06;28.30;92.90
15355;DHT22;7777;52.254;9.618;2023-07-09T09:58:40;28.40;92.80
15355;DHT22;7777;52.254;9.618;2023-07-09T10:01:14;28.50;92.90
15355;DHT22;7777;52.254;9.618;2023-07-09T10:03:42;28.60;92.70
15355;DHT22;7777;52.254;9.618;2023-07-09T10:06:21;28.60;92.20
15355;DHT22;7777;52.254;9.618;2023-07-09T10:09:13;28.70;92.40
15355;DHT22;7777;52.254;9.618;2023-07-09T10:11:46;28.80;92.50
15355;DHT22;7777;52.254;9.618;2023-07-09T10:14:38;28.90;92.80
15355;DHT22;7777;52.254;9.618;2023-07-09T10:17:20;29.00;92.90
15355;DHT22;7777;52.254;9.618;2023-07-09T10:19:56;29.20;93.10
15355;DHT22;7777;52.254;9.618;2023-07-09T10:22:38;29.30;92.90
15355;DHT22;7777;52.254;9.618;2023-07-09T10:37:25;29.80;93.30
15355;DHT22;7777;52.254;9.618;2023-07-09T10:39:57;30.00;93.10
15355;DHT22;7777;52.254;9.618;2023-07-09T10:42:35;30.10;93.10
15355;DHT22;7777;52.254;9.618;2023-07-09T10:45:10;30.20;92.90
15355;DHT22;7777;52.254;9.618;2023-07-09T10:47:45;30.30;93.00
15355;DHT22;7777;52.254;9.618;2023-07-09T10:50:29;30.40;93.40
15355;DHT22;7777;52.254;9.618;2023-07-09T10:53:11;30.50;93.30
15355;DHT22;7777;52.254;9.618;2023-07-09T10:55:44;30.70;93.40
15355;DHT22;7777;52.254;9.618;2023-07-09T10:58:28;30.80;93.00
15355;DHT22;7777;52.254;9.618;2023-07-09T11:00:59;30.90;92.70
15355;DHT22;7777;52.254;9.618;2023-07-09T11:06:22;31.10;92.50
15355;DHT22;7777;52.254;9.618;2023-07-09T11:09:24;31.20;92.80
15355;DHT22;7777;52.254;9.618;2023-07-09T11:11:55;31.20;92.50
15355;DHT22;7777;52.254;9.618;2023-07-09T11:17:11;31.40;92.50
15355;DHT22;7777;52.254;9.618;2023-07-09T11:19:47;31.50;92.70
15355;DHT22;7777;52.254;9.618;2023-07-09T11:22:38;31.50;92.30
15355;DHT22;7777;52.254;9.618;2023-07-09T11:25:10;31.60;92.40
15355;DHT22;7777;52.254;9.618;2023-07-09T11:27:53;31.70;92.40
15355;DHT22;7777;52.254;9.618;2023-07-09T11:30:28;31.80;92.60
15355;DHT22;7777;52.254;9.618;2023-07-09T11:35:43;31.90;92.10
15355;DHT22;7777;52.254;9.618;2023-07-09T11:38:22;32.00;92.10
15355;DHT22;7777;52.254;9.618;2023-07-09T11:40:54;32.10;92.00
15355;DHT22;7777;52.254;9.618;2023-07-09T11:43:33;32.20;91.70
15355;DHT22;7777;52.254;9.618;2023-07-09T11:46:24;32.30;92.10
15355;DHT22;7777;52.254;9.618;2023-07-09T11:48:54;32.40;92.00
15355;DHT22;7777;52.254;9.618;2023-07-09T11:51:43;32.50;91.30
15355;DHT22;7777;52.254;9.618;2023-07-09T11:54:13;32.50;91.70
15355;DHT22;7777;52.254;9.618;2023-07-09T11:56:39;32.60;91.40
15355;DHT22;7777;52.254;9.618;2023-07-09T11:59:05;32.60;91.50
15355;DHT22;7777;52.254;9.618;2023-07-09T12:01:40;32.70;91.40
15355;DHT22;7777;52.254;9.618;2023-07-09T12:04:17;32.80;90.80
15355;DHT22;7777;52.254;9.618;2023-07-09T12:06:44;32.80;89.60
15355;DHT22;7777;52.254;9.618;2023-07-09T12:09:19;32.80;89.50
15355;DHT22;7777;52.254;9.618;2023-07-09T12:11:50;32.90;89.10
15355;DHT22;7777;52.254;9.618;2023-07-09T12:14:18;32.90;90.80
15355;DHT22;7777;52.254;9.618;2023-07-09T12:16:51;33.00;90.70
15355;DHT22;7777;52.254;9.618;2023-07-09T12:19:19;33.00;90.50
15355;DHT22;7777;52.254;9.618;2023-07-09T12:21:55;33.10;90.90
15355;DHT22;7777;52.254;9.618;2023-07-09T12:24:23;33.20;91.30
15355;DHT22;7777;52.254;9.618;2023-07-09T12:26:59;33.30;89.70
15355;DHT22;7777;52.254;9.618;2023-07-09T12:29:30;33.30;88.90
15355;DHT22;7777;52.254;9.618;2023-07-09T12:32:03;33.40;90.30
15355;DHT22;7777;52.254;9.618;2023-07-09T12:34:34;33.50;90.50
15355;DHT22;7777;52.254;9.618;2023-07-09T12:37:00;33.50;90.30
15355;DHT22;7777;52.254;9.618;2023-07-09T12:39:28;33.60;90.20
15355;DHT22;7777;52.254;9.618;2023-07-09T12:41:56;33.70;89.10
15355;DHT22;7777;52.254;9.618;2023-07-09T12:44:26;33.70;89.30
15355;DHT22;7777;52.254;9.618;2023-07-09T12:46:53;33.80;89.20
15355;DHT22;7777;52.254;9.618;2023-07-09T12:49:23;33.80;90.40
15355;DHT22;7777;52.254;9.618;2023-07-09T12:51:53;33.90;86.90
15355;DHT22;7777;52.254;9.618;2023-07-09T12:54:23;33.90;87.40
15355;DHT22;7777;52.254;9.618;2023-07-09T12:56:53;33.90;88.70
15355;DHT22;7777;52.254;9.618;2023-07-09T12:59:22;34.00;87.20
15355;DHT22;7777;52.254;9.618;2023-07-09T13:02:22;34.00;87.70
15355;DHT22;7777;52.254;9.618;2023-07-09T13:04:50;34.00;86.30
15355;DHT22;7777;52.254;9.618;2023-07-09T13:09:51;34.10;83.40
15355;DHT22;7777;52.254;9.618;2023-07-09T13:12:18;34.10;82.60
15355;DHT22;7777;52.254;9.618;2023-07-09T13:14:52;34.10;86.00
15355;DHT22;7777;52.254;9.618;2023-07-09T13:17:18;34.10;84.80
15355;DHT22;7777;52.254;9.618;2023-07-09T13:19:44;34.10;85.10
15355;DHT22;7777;52.254;9.618;2023-07-09T13:22:14;34.20;85.90
15355;DHT22;7777;52.254;9.618;2023-07-09T13:24:42;34.20;84.80
15355;DHT22;7777;52.254;9.618;2023-07-09T13:27:14;34.20;85.50
15355;DHT22;7777;52.254;9.618;2023-07-09T13:29:41;34.30;84.80
15355;DHT22;7777;52.254;9.618;2023-07-09T13:32:11;34.30;84.30
15355;DHT22;7777;52.254;9.618;2023-07-09T13:34:38;34.30;84.40
15355;DHT22;7777;52.254;9.618;2023-07-09T13:37:05;34.30;82.10
15355;DHT22;7777;52.254;9.618;2023-07-09T13:39:34;34.30;81.20
15355;DHT22;7777;52.254;9.618;2023-07-09T13:42:00;34.30;82.80
15355;DHT22;7777;52.254;9.618;2023-07-09T13:44:29;34.30;80.40
15355;DHT22;7777;52.254;9.618;2023-07-09T13:46:56;34.30;82.50
15355;DHT22;7777;52.254;9.618;2023-07-09T13:49:24;34.30;82.70
15355;DHT22;7777;52.254;9.618;2023-07-09T13:51:55;34.30;82.30
15355;DHT22;7777;52.254;9.618;2023-07-09T13:54:28;34.30;83.70
15355;DHT22;7777;52.254;9.618;2023-07-09T13:57:02;34.30;82.50
15355;DHT22;7777;52.254;9.618;2023-07-09T13:59:29;34.30;83.50
15355;DHT22;7777;52.254;9.618;2023-07-09T14:01:56;34.30;84.90
15355;DHT22;7777;52.254;9.618;2023-07-09T14:04:25;34.40;85.00
15355;DHT22;7777;52.254;9.618;2023-07-09T14:06:53;34.40;85.80
15355;DHT22;7777;52.254;9.618;2023-07-09T14:09:19;34.40;85.50
15355;DHT22;7777;52.254;9.618;2023-07-09T14:11:53;34.30;82.00
15355;DHT22;7777;52.254;9.618;2023-07-09T14:14:23;34.30;82.30
15355;DHT22;7777;52.254;9.618;2023-07-09T14:16:57;34.20;80.70
15355;DHT22;7777;52.254;9.618;2023-07-09T14:19:24;34.20;82.10
15355;DHT22;7777;52.254;9.618;2023-07-09T14:21:51;34.20;82.40
15355;DHT22;7777;52.254;9.618;2023-07-09T14:24:26;34.20;82.70
15355;DHT22;7777;52.254;9.618;2023-07-09T14:26:55;34.20;81.10
15355;DHT22;7777;52.254;9.618;2023-07-09T14:29:23;34.10;82.10
15355;DHT22;7777;52.254;9.618;2023-07-09T14:31:50;34.10;81.20
15355;DHT22;7777;52.254;9.618;2023-07-09T14:36:53;34.10;83.40
15355;DHT22;7777;52.254;9.618;2023-07-09T14:39:21;34.10;82.10
15355;DHT22;7777;52.254;9.618;2023-07-09T14:41:47;34.10;83.20
15355;DHT22;7777;52.254;9.618;2023-07-09T14:44:28;34.10;83.70
15355;DHT22;7777;52.254;9.618;2023-07-09T14:46:57;34.10;84.50
15355;DHT22;7777;52.254;9.618;2023-07-09T14:49:25;34.00;82.90
15355;DHT22;7777;52.254;9.618;2023-07-09T14:51:52;34.00;82.90
15355;DHT22;7777;52.254;9.618;2023-07-09T14:56:54;33.90;81.50
15355;DHT22;7777;52.254;9.618;2023-07-09T14:59:20;33.90;80.60
15355;DHT22;7777;52.254;9.618;2023-07-09T15:01:47;33.80;79.40
15355;DHT22;7777;52.254;9.618;2023-07-09T15:06:48;33.70;80.50
15355;DHT22;7777;52.254;9.618;2023-07-09T15:09:16;33.60;82.00
15355;DHT22;7777;52.254;9.618;2023-07-09T15:11:45;33.60;81.40
15355;DHT22;7777;52.254;9.618;2023-07-09T15:14:11;33.50;81.00
15355;DHT22;7777;52.254;9.618;2023-07-09T15:16:37;33.50;80.70
15355;DHT22;7777;52.254;9.618;2023-07-09T15:19:13;33.50;81.00
15355;DHT22;7777;52.254;9.618;2023-07-09T15:21:40;33.50;81.10
15355;DHT22;7777;52.254;9.618;2023-07-09T15:24:16;33.40;82.00
15355;DHT22;7777;52.254;9.618;2023-07-09T15:26:49;33.40;81.30
15355;DHT22;7777;52.254;9.618;2023-07-09T15:29:20;33.40;81.40
15355;DHT22;7777;52.254;9.618;2023-07-09T15:31:47;33.40;81.80
15355;DHT22;7777;52.254;9.618;2023-07-09T15:34:13;33.40;83.00
15355;DHT22;7777;52.254;9.618;2023-07-09T15:36:45;33.30;83.00
15355;DHT22;7777;52.254;9.618;2023-07-09T15:39:14;33.30;82.80
15355;DHT22;7777;52.254;9.618;2023-07-09T15:41:40;33.40;83.80
15355;DHT22;7777;52.254;9.618;2023-07-09T15:44:17;33.30;83.80
15355;DHT22;7777;52.254;9.618;2023-07-09T15:46:52;33.30;83.90
15355;DHT22;7777;52.254;9.618;2023-07-09T15:49:19;33.30;83.10
15355;DHT22;7777;52.254;9.618;2023-07-09T15:51:45;33.20;83.40
15355;DHT22;7777;52.254;9.618;2023-07-09T15:54:16;33.20;83.40
15355;DHT22;7777;52.254;9.618;2023-07-09T15:56:44;33.20;83.50
15355;DHT22;7777;52.254;9.618;2023-07-09T15:59:29;33.10;83.70
15355;DHT22;7777;52.254;9.618;2023-07-09T16:02:01;33.10;84.50
15355;DHT22;7777;52.254;9.618;2023-07-09T16:04:28;33.10;84.30
15355;DHT22;7777;52.254;9.618;2023-07-09T16:06:54;33.00;84.40
15355;DHT22;7777;52.254;9.618;2023-07-09T16:09:20;33.00;84.70
15355;DHT22;7777;52.254;9.618;2023-07-09T16:11:51;33.00;85.20
15355;DHT22;7777;52.254;9.618;2023-07-09T16:14:29;32.90;85.00
15355;DHT22;7777;52.254;9.618;2023-07-09T16:16:58;32.90;85.10
15355;DHT22;7777;52.254;9.618;2023-07-09T16:19:27;32.90;85.60
15355;DHT22;7777;52.254;9.618;2023-07-09T16:21:58;32.80;86.10
15355;DHT22;7777;52.254;9.618;2023-07-09T16:24:27;32.80;86.20
15355;DHT22;7777;52.254;9.618;2023-07-09T16:26:58;32.80;86.30
15355;DHT22;7777;52.254;9.618;2023-07-09T16:29:30;32.70;86.80
15355;DHT22;7777;52.254;9.618;2023-07-09T16:31:58;32.70;87.30
15355;DHT22;7777;52.254;9.618;2023-07-09T16:34:25;32.70;87.80
15355;DHT22;7777;52.254;9.618;2023-07-09T16:36:52;32.70;88.50
15355;DHT22;7777;52.254;9.618;2023-07-09T16:39:41;32.60;88.70
15355;DHT22;7777;52.254;9.618;2023-07-09T16:42:12;32.60;88.70
15355;DHT22;7777;52.254;9.618;2023-07-09T16:44:38;32.50;88.80
15355;DHT22;7777;52.254;9.618;2023-07-09T16:47:17;32.60;89.10